createdAt,value
2018-07-22T00:00:59.755Z,94.92
2018-07-22T00:02:08.620Z,94.54
2018-07-22T00:03:17.482Z,95.02
2018-07-22T00:04:27.322Z,95.4
2018-07-22T00:05:36.334Z,95.6
2018-07-22T00:06:45.194Z,95.6
2018-07-22T00:07:54.058Z,95.21
2018-07-22T00:09:02.919Z,94.49
2018-07-22T00:10:11.783Z,94.35
2018-07-22T00:11:20.645Z,94.25
2018-07-22T00:12:29.508Z,95.4
2018-07-22T00:13:38.930Z,95.02
2018-07-22T00:14:47.785Z,94.83
2018-07-22T00:15:56.646Z,95.6
2018-07-22T00:17:05.858Z,95.31
2018-07-22T00:18:14.719Z,94.92
2018-07-22T00:19:23.581Z,95.4
2018-07-22T00:20:32.442Z,95.31
2018-07-22T00:21:41.302Z,94.92
2018-07-22T00:22:50.314Z,95.21
2018-07-22T00:23:59.454Z,95.36
2018-07-22T00:25:08.595Z,95.21
2018-07-22T00:26:17.735Z,95.5
2018-07-22T00:27:26.599Z,94.3
2018-07-22T00:28:35.459Z,95.4
2018-07-22T00:29:44.594Z,95.6
2018-07-22T00:30:53.454Z,95.21
2018-07-22T00:32:02.320Z,95.4
2018-07-22T00:33:11.179Z,94.49
2018-07-22T00:34:20.315Z,95.21
2018-07-22T00:35:29.173Z,95.4
2018-07-22T00:36:38.037Z,94.73
2018-07-22T00:37:46.894Z,95.31
2018-07-22T00:38:55.755Z,94.54
2018-07-22T00:40:05.171Z,93.87
2018-07-22T00:41:14.038Z,94.35
2018-07-22T00:42:23.173Z,94.54
2018-07-22T00:43:32.309Z,93.87
2018-07-22T00:44:41.284Z,94.64
2018-07-22T00:45:50.419Z,94.45
2018-07-22T00:46:59.283Z,94.73
2018-07-22T00:48:08.430Z,93.77
2018-07-22T00:49:17.293Z,94.25
2018-07-22T00:50:26.161Z,94.54
2018-07-22T00:51:35.649Z,94.54
2018-07-22T00:52:44.783Z,94.35
2018-07-22T00:53:53.642Z,94.73
2018-07-22T00:55:02.503Z,94.45
2018-07-22T00:56:11.660Z,93.96
2018-07-22T00:57:20.621Z,94.64
2018-07-22T00:58:29.482Z,95.7
2018-07-22T00:59:38.344Z,94.92
2018-07-22T01:00:47.208Z,95.02
2018-07-22T01:01:56.347Z,95.02
2018-07-22T01:03:05.209Z,94.92
2018-07-22T01:04:14.073Z,95.21
2018-07-22T01:05:23.219Z,95.31
2018-07-22T01:06:32.080Z,95.12
2018-07-22T01:07:40.944Z,95.7
2018-07-22T01:08:50.080Z,94.83
2018-07-22T01:09:58.941Z,94.54
2018-07-22T01:11:08.131Z,94.73
2018-07-22T01:12:16.987Z,95.31
2018-07-22T01:13:26.130Z,95.6
2018-07-22T01:14:35.623Z,95.21
2018-07-22T01:15:44.482Z,95.4
2018-07-22T01:16:53.345Z,95.31
2018-07-22T01:18:02.205Z,95.02
2018-07-22T01:19:11.065Z,95.7
2018-07-22T01:20:20.349Z,95.5
2018-07-22T01:21:29.211Z,96.37
2018-07-22T01:22:38.074Z,95.79
2018-07-22T01:23:46.945Z,96.47
2018-07-22T01:24:56.147Z,96.47
2018-07-22T01:26:05.018Z,95.98
2018-07-22T01:27:14.431Z,96.56
2018-07-22T01:28:23.292Z,95.65
2018-07-22T01:29:32.152Z,95.31
2018-07-22T01:30:41.014Z,95.6
2018-07-22T01:31:49.875Z,95.55
2018-07-22T01:32:58.734Z,96.66
2018-07-22T01:34:07.596Z,96.22
2018-07-22T01:35:16.460Z,95.6
2018-07-22T01:36:25.600Z,95.65
2018-07-22T01:37:34.611Z,96.13
2018-07-22T01:38:43.752Z,95.94
2018-07-22T01:39:52.613Z,96.22
2018-07-22T01:41:01.759Z,96.22
2018-07-22T01:42:10.613Z,96.42
2018-07-22T01:43:19.634Z,96.42
2018-07-22T01:44:28.801Z,96.51
2018-07-22T01:45:37.937Z,96.03
2018-07-22T01:46:47.072Z,96.13
2018-07-22T01:47:55.933Z,96.42
2018-07-22T01:49:05.076Z,96.42
2018-07-22T01:50:13.937Z,96.13
2018-07-22T01:51:22.805Z,96.22
2018-07-22T01:52:31.943Z,96.51
2018-07-22T01:53:41.082Z,96.42
2018-07-22T01:54:50.219Z,96.7
2018-07-22T01:55:59.079Z,96.32
2018-07-22T01:57:07.941Z,96.22
2018-07-22T01:58:16.800Z,96.22
2018-07-22T01:59:26.217Z,96.37
2018-07-22T02:00:35.429Z,95.79
2018-07-22T02:01:44.383Z,96.51
2018-07-22T02:02:53.817Z,95.21
2018-07-22T02:04:02.675Z,95.4
2018-07-22T02:05:11.536Z,95.84
2018-07-22T02:06:20.396Z,95.79
2018-07-22T02:07:29.259Z,95.5
2018-07-22T02:08:38.395Z,96.37
2018-07-22T02:09:47.255Z,96.08
2018-07-22T02:10:56.114Z,96.17
2018-07-22T02:12:04.976Z,96.37
2018-07-22T02:13:13.838Z,96.17
2018-07-22T02:14:22.701Z,96.27
2018-07-22T02:15:31.560Z,96.37
2018-07-22T02:16:40.422Z,96.37
2018-07-22T02:17:49.284Z,96.17
2018-07-22T02:18:58.145Z,96.37
2018-07-22T02:20:07.007Z,96.37
2018-07-22T02:21:15.865Z,96.37
2018-07-22T02:22:24.730Z,95.79
2018-07-22T02:23:33.738Z,95.7
2018-07-22T02:24:42.597Z,95.5
2018-07-22T02:25:51.735Z,95.4
2018-07-22T02:27:00.595Z,95.4
2018-07-22T02:28:10.013Z,95.21
2018-07-22T02:29:18.875Z,95.12
2018-07-22T02:30:27.734Z,95.4
2018-07-22T02:31:36.873Z,95.21
2018-07-22T02:32:46.012Z,95.31
2018-07-22T02:33:54.875Z,94.83
2018-07-22T02:35:03.784Z,94.73
2018-07-22T02:36:12.923Z,95.31
2018-07-22T02:37:22.339Z,95.12
2018-07-22T02:38:32.032Z,95.12
2018-07-22T02:39:41.171Z,95.31
2018-07-22T02:40:50.307Z,95.31
2018-07-22T02:41:59.169Z,95.21
2018-07-22T02:43:08.585Z,95.12
2018-07-22T02:44:17.447Z,95.79
2018-07-22T02:45:26.581Z,95.21
2018-07-22T02:46:35.871Z,95.03
2018-07-22T02:47:45.013Z,95.5
2018-07-22T02:48:53.876Z,95.07
2018-07-22T02:50:02.739Z,95.21
2018-07-22T02:51:11.599Z,94.64
2018-07-22T02:52:20.738Z,94.35
2018-07-22T02:53:29.878Z,94.64
2018-07-22T02:54:38.739Z,94.73
2018-07-22T02:55:48.224Z,94.16
2018-07-22T02:56:57.365Z,94.06
2018-07-22T02:58:06.504Z,93.87
2018-07-22T02:59:15.373Z,93.77
2018-07-22T03:00:24.513Z,93.68
2018-07-22T03:01:33.377Z,93.77
2018-07-22T03:02:42.238Z,93.68
2018-07-22T03:03:51.805Z,93.29
2018-07-22T03:05:00.946Z,93.39
2018-07-22T03:06:10.090Z,93.77
2018-07-22T03:07:19.256Z,93.77
2018-07-22T03:08:28.119Z,93.87
2018-07-22T03:09:36.979Z,94.64
2018-07-22T03:10:45.841Z,94.59
2018-07-22T03:11:54.703Z,93.73
2018-07-22T03:13:03.565Z,94.16
2018-07-22T03:14:12.701Z,94.64
2018-07-22T03:15:21.568Z,94.49
2018-07-22T03:16:30.706Z,94.59
2018-07-22T03:17:39.863Z,94.4
2018-07-22T03:18:49.267Z,94.78
2018-07-22T03:19:58.406Z,94.59
2018-07-22T03:21:07.270Z,94.31
2018-07-22T03:22:16.411Z,94.78
2018-07-22T03:23:25.566Z,93.63
2018-07-22T03:24:34.703Z,93.77
2018-07-22T03:25:43.849Z,93.77
2018-07-22T03:26:52.811Z,93.68
2018-07-22T03:28:01.691Z,93.19
2018-07-22T03:29:10.816Z,93.19
2018-07-22T03:30:19.680Z,94.16
2018-07-22T03:31:28.830Z,94.73
2018-07-22T03:32:38.243Z,93.96
2018-07-22T03:33:47.110Z,94.35
2018-07-22T03:34:56.249Z,93.58
2018-07-22T03:36:05.110Z,93.58
2018-07-22T03:37:14.248Z,94.26
2018-07-22T03:38:23.384Z,94.06
2018-07-22T03:39:32.247Z,93.96
2018-07-22T03:40:41.382Z,94.06
2018-07-22T03:41:50.242Z,94.64
2018-07-22T03:42:59.109Z,94.35
2018-07-22T03:44:08.251Z,94.73
2018-07-22T03:45:17.110Z,94.73
2018-07-22T03:46:25.975Z,94.64
2018-07-22T03:47:34.836Z,94.73
2018-07-22T03:48:43.696Z,94.64
2018-07-22T03:49:52.557Z,94.83
2018-07-22T03:51:01.693Z,95.75
2018-07-22T03:52:10.825Z,95.36
2018-07-22T03:53:19.685Z,94.64
2018-07-22T03:54:28.546Z,94.59
2018-07-22T03:55:37.411Z,95.45
2018-07-22T03:56:46.555Z,95.07
2018-07-22T03:57:55.415Z,95.26
2018-07-22T03:59:04.551Z,95.07
2018-07-22T04:00:13.412Z,94.88
2018-07-22T04:01:22.423Z,95.55
2018-07-22T04:02:31.286Z,95.65
2018-07-22T04:03:40.419Z,95.07
2018-07-22T04:04:49.280Z,95.36
2018-07-22T04:05:58.417Z,94.21
2018-07-22T04:07:07.547Z,94.98
2018-07-22T04:08:16.286Z,94.59
2018-07-22T04:09:25.149Z,93.82
2018-07-22T04:10:34.011Z,94.88
2018-07-22T04:11:42.873Z,94.59
2018-07-22T04:12:52.162Z,94.69
2018-07-22T04:14:01.310Z,94.54
2018-07-22T04:15:10.444Z,94.73
2018-07-22T04:16:19.305Z,95.07
2018-07-22T04:17:28.166Z,94.64
2018-07-22T04:18:37.033Z,94.83
2018-07-22T04:19:45.894Z,95.31
2018-07-22T04:20:54.754Z,94.73
2018-07-22T04:22:03.615Z,94.49
2018-07-22T04:23:13.033Z,94.35
2018-07-22T04:24:21.894Z,94.73
2018-07-22T04:25:31.033Z,93.92
2018-07-22T04:26:39.900Z,94.45
2018-07-22T04:27:48.758Z,94.49
2018-07-22T04:28:57.617Z,94.21
2018-07-22T04:30:06.910Z,94.16
2018-07-22T04:31:15.775Z,94.01
2018-07-22T04:32:24.911Z,93.68
2018-07-22T04:33:34.053Z,94.16
2018-07-22T04:34:43.191Z,94.06
2018-07-22T04:35:52.049Z,93.92
2018-07-22T04:37:00.907Z,93.68
2018-07-22T04:38:09.767Z,92.91
2018-07-22T04:39:18.631Z,93.25
2018-07-22T04:40:27.490Z,93.34
2018-07-22T04:41:36.704Z,93.44
2018-07-22T04:42:45.561Z,93.05
2018-07-22T04:43:54.423Z,92.67
2018-07-22T04:45:03.285Z,92.86
2018-07-22T04:46:12.145Z,92.48
2018-07-22T04:47:21.387Z,92.48
2018-07-22T04:48:30.250Z,92.57
2018-07-22T04:49:39.111Z,92.29
2018-07-22T04:50:47.971Z,92.19
2018-07-22T04:51:56.832Z,92.1
2018-07-22T04:53:05.849Z,91.42
2018-07-22T04:54:15.263Z,91.81
2018-07-22T04:55:24.124Z,91.18
2018-07-22T04:56:33.264Z,90.99
2018-07-22T04:57:42.123Z,91.81
2018-07-22T04:58:50.986Z,91.33
2018-07-22T04:59:59.847Z,91.28
2018-07-22T05:01:08.983Z,91.28
2018-07-22T05:02:17.846Z,91.47
2018-07-22T05:03:26.991Z,90.99
2018-07-22T05:04:35.852Z,91.18
2018-07-22T05:05:44.716Z,91.75
2018-07-22T05:06:53.576Z,92.43
2018-07-22T05:08:02.714Z,91.85
2018-07-22T05:09:11.575Z,90.94
2018-07-22T05:10:20.869Z,91.52
2018-07-22T05:11:30.003Z,91.37
2018-07-22T05:12:38.865Z,91.85
2018-07-22T05:13:47.727Z,91.37
2018-07-22T05:14:56.864Z,90.99
2018-07-22T05:16:06.353Z,91.37
2018-07-22T05:17:15.216Z,91.08
2018-07-22T05:18:24.074Z,91.56
2018-07-22T05:19:32.936Z,91.23
2018-07-22T05:20:41.799Z,90.8
2018-07-22T05:21:50.660Z,90.6
2018-07-22T05:22:59.522Z,90.8
2018-07-22T05:24:08.659Z,90.7
2018-07-22T05:25:17.518Z,90.89
2018-07-22T05:26:26.657Z,90.7
2018-07-22T05:27:35.618Z,90.7
2018-07-22T05:28:44.481Z,89.93
2018-07-22T05:29:53.346Z,89.83
2018-07-22T05:31:02.210Z,90.31
2018-07-22T05:32:11.357Z,90.41
2018-07-22T05:33:20.872Z,90.41
2018-07-22T05:34:29.734Z,90.31
2018-07-22T05:35:38.596Z,90.22
2018-07-22T05:36:47.768Z,90.03
2018-07-22T05:37:56.630Z,90.31
2018-07-22T05:39:05.643Z,90.41
2018-07-22T05:40:14.508Z,90.31
2018-07-22T05:41:23.373Z,90.36
2018-07-22T05:42:32.229Z,90.17
2018-07-22T05:43:41.090Z,90.36
2018-07-22T05:44:49.953Z,90.36
2018-07-22T05:45:58.811Z,90.07
2018-07-22T05:47:07.680Z,89.59
2018-07-22T05:48:17.093Z,90.36
2018-07-22T05:49:25.953Z,90.36
2018-07-22T05:50:34.813Z,89.5
2018-07-22T05:51:43.675Z,89.98
2018-07-22T05:52:52.811Z,89.88
2018-07-22T05:54:01.729Z,89.78
2018-07-22T05:55:10.946Z,89.98
2018-07-22T05:56:19.809Z,89.88
2018-07-22T05:57:28.671Z,89.5
2018-07-22T05:58:37.531Z,89.78
2018-07-22T05:59:46.392Z,89.69
2018-07-22T06:00:55.255Z,89.98
2018-07-22T06:02:04.491Z,89.69
2018-07-22T06:03:13.376Z,89.5
2018-07-22T06:04:22.525Z,89.59
2018-07-22T06:05:31.388Z,89.69
2018-07-22T06:06:40.250Z,89.69
2018-07-22T06:07:49.262Z,89.5
2018-07-22T06:08:58.120Z,89.69
2018-07-22T06:10:07.262Z,89.69
2018-07-22T06:11:16.400Z,89.4
2018-07-22T06:12:25.261Z,90.07
2018-07-22T06:13:34.272Z,89.69
2018-07-22T06:14:43.136Z,89.5
2018-07-22T06:15:51.998Z,89.54
2018-07-22T06:17:00.861Z,89.73
2018-07-22T06:18:09.721Z,89.59
2018-07-22T06:19:18.734Z,89.06
2018-07-22T06:20:27.596Z,88.67
2018-07-22T06:21:36.456Z,89.06
2018-07-22T06:22:45.318Z,88.96
2018-07-22T06:23:54.454Z,88.96
2018-07-22T06:25:03.597Z,88.96
2018-07-22T06:26:12.737Z,88.91
2018-07-22T06:27:21.600Z,88.57
2018-07-22T06:28:30.466Z,89.15
2018-07-22T06:29:39.329Z,89.2
2018-07-22T06:30:48.541Z,89.1
2018-07-22T06:31:58.233Z,89.68
2018-07-22T06:33:07.089Z,89.39
2018-07-22T06:34:15.951Z,89.01
2018-07-22T06:35:24.816Z,89.39
2018-07-22T06:36:33.778Z,88.81
2018-07-22T06:37:42.641Z,88.81
2018-07-22T06:38:51.501Z,89.1
2018-07-22T06:40:00.365Z,88.91
2018-07-22T06:41:09.248Z,89.2
2018-07-22T06:42:18.551Z,89.2
2018-07-22T06:43:27.416Z,89.2
2018-07-22T06:44:36.279Z,88.53
2018-07-22T06:45:45.421Z,89.01
2018-07-22T06:46:54.284Z,89.24
2018-07-22T06:48:03.244Z,89.1
2018-07-22T06:49:12.389Z,89.05
2018-07-22T06:50:21.258Z,89.2
2018-07-22T06:51:30.146Z,88.71
2018-07-22T06:52:39.572Z,89.63
2018-07-22T06:53:48.535Z,88.76
2018-07-22T06:54:57.396Z,88.95
2018-07-22T06:56:06.258Z,89.34
2018-07-22T06:57:15.707Z,88.67
2018-07-22T06:58:24.851Z,88.67
2018-07-22T06:59:33.812Z,88.9
2018-07-22T07:00:42.675Z,88.71
2018-07-22T07:01:51.872Z,89
2018-07-22T07:03:00.733Z,87.94
2018-07-22T07:04:09.599Z,87.84
2018-07-22T07:05:18.518Z,88.17
2018-07-22T07:06:27.712Z,88.17
2018-07-22T07:07:36.575Z,88.17
2018-07-22T07:08:45.720Z,89.04
2018-07-22T07:09:54.583Z,88.17
2018-07-22T07:11:04.045Z,87.5
2018-07-22T07:12:12.867Z,87.88
2018-07-22T07:13:21.731Z,88.41
2018-07-22T07:14:30.873Z,87.54
2018-07-22T07:15:39.733Z,88.31
2018-07-22T07:16:48.596Z,87.93
2018-07-22T07:17:57.459Z,87.93
2018-07-22T07:19:06.323Z,87.83
2018-07-22T07:20:15.517Z,88.31
2018-07-22T07:21:24.482Z,87.93
2018-07-22T07:22:33.775Z,87.74
2018-07-22T07:23:42.639Z,86.96
2018-07-22T07:24:51.504Z,86.82
2018-07-22T07:26:00.369Z,86.87
2018-07-22T07:27:09.511Z,86.91
2018-07-22T07:28:18.527Z,87.59
2018-07-22T07:29:27.397Z,86.91
2018-07-22T07:30:36.536Z,86.82
2018-07-22T07:31:45.398Z,86.43
2018-07-22T07:32:54.262Z,87.49
2018-07-22T07:34:03.127Z,87.88
2018-07-22T07:35:11.991Z,87.59
2018-07-22T07:36:20.857Z,87.01
2018-07-22T07:37:29.722Z,86.24
2018-07-22T07:38:38.587Z,86.24
2018-07-22T07:39:47.733Z,86.43
2018-07-22T07:40:56.595Z,86.43
2018-07-22T07:42:05.456Z,87.73
2018-07-22T07:43:14.319Z,87.92
2018-07-22T07:44:23.186Z,89.03
2018-07-22T07:45:32.052Z,88.21
2018-07-22T07:46:40.910Z,88.89
2018-07-22T07:47:49.774Z,88.4
2018-07-22T07:48:58.639Z,86.76
2018-07-22T07:50:07.504Z,86.66
2018-07-22T07:51:16.519Z,85.99
2018-07-22T07:52:25.382Z,84.74
2018-07-22T07:53:34.246Z,84.25
2018-07-22T07:54:43.385Z,84.44
2018-07-22T07:55:52.249Z,85.22
2018-07-22T07:57:01.265Z,85.6
2018-07-22T07:58:10.128Z,86.66
2018-07-22T07:59:19.269Z,85.89
2018-07-22T08:00:28.408Z,86.9
2018-07-22T08:01:37.270Z,86.22
2018-07-22T08:02:46.239Z,84.78
2018-07-22T08:03:55.703Z,82.94
2018-07-22T08:05:04.872Z,81.78
2018-07-22T08:06:14.010Z,80.82
2018-07-22T08:07:23.151Z,80.14
2018-07-22T08:08:32.289Z,80.05
2018-07-22T08:09:41.154Z,79.66
2018-07-22T08:10:50.016Z,80.38
2018-07-22T08:11:59.160Z,80.28
2018-07-22T08:13:08.025Z,81.15
2018-07-22T08:14:16.888Z,78.44
2018-07-22T08:15:26.028Z,80.66
2018-07-22T08:16:34.891Z,80.18
2018-07-22T08:17:43.755Z,80.76
2018-07-22T08:18:56.437Z,79.5
2018-07-22T08:20:02.114Z,79.6
2018-07-22T08:21:10.978Z,79.41
2018-07-22T08:22:20.119Z,80.38
2018-07-22T08:23:28.985Z,80.38
2018-07-22T08:24:37.849Z,79.02
2018-07-22T08:25:46.713Z,78.73
2018-07-22T08:26:55.582Z,80.38
2018-07-22T08:28:04.446Z,79.02
2018-07-22T08:29:13.309Z,78.64
2018-07-22T08:30:22.224Z,78.29
2018-07-22T08:31:31.480Z,78.67
2018-07-22T08:32:40.339Z,78.06
2018-07-22T08:33:49.205Z,78.38
2018-07-22T08:34:58.073Z,78.15
2018-07-22T08:36:07.211Z,78.09
2018-07-22T08:37:16.176Z,78.54
2018-07-22T08:38:25.039Z,77.61
2018-07-22T08:39:34.180Z,76.84
2018-07-22T08:40:43.045Z,77.42
2018-07-22T08:41:52.184Z,77.8
2018-07-22T08:43:01.198Z,77.61
2018-07-22T08:44:10.064Z,76.55
2018-07-22T08:45:18.927Z,76.93
2018-07-22T08:46:28.070Z,76.55
2018-07-22T08:47:36.951Z,75.23
2018-07-22T08:48:46.661Z,75.48
2018-07-22T08:49:55.524Z,76.55
2018-07-22T08:51:04.668Z,76.55
2018-07-22T08:52:13.538Z,77.84
2018-07-22T08:53:22.677Z,78
2018-07-22T08:54:31.827Z,78.58
2018-07-22T08:55:40.691Z,78.03
2018-07-22T08:56:49.554Z,79.39
2018-07-22T08:57:58.695Z,79.68
2018-07-22T08:59:07.563Z,79.87
2018-07-22T09:00:16.572Z,80.07
2018-07-22T09:01:25.442Z,80.16
2018-07-22T09:02:34.591Z,80.65
2018-07-22T09:03:44.030Z,80.84
2018-07-22T09:04:52.893Z,80.94
2018-07-22T09:06:01.760Z,80.59
2018-07-22T09:07:10.622Z,81.85
2018-07-22T09:08:19.584Z,80.88
2018-07-22T09:09:28.738Z,80.2
2018-07-22T09:10:37.598Z,79.82
2018-07-22T09:11:46.936Z,80.3
2018-07-22T09:12:55.754Z,80.79
2018-07-22T09:14:04.621Z,79.62
2018-07-22T09:15:13.490Z,80.2
2018-07-22T09:16:22.353Z,79.52
2018-07-22T09:17:31.218Z,77.34
2018-07-22T09:18:40.091Z,77.24
2018-07-22T09:19:49.232Z,77.14
2018-07-22T09:20:58.098Z,75.7
2018-07-22T09:22:07.386Z,74.73
2018-07-22T09:23:16.529Z,73.95
2018-07-22T09:24:25.395Z,75.6
2018-07-22T09:25:34.260Z,73.66
2018-07-22T09:26:43.125Z,72.4
2018-07-22T09:27:52.265Z,73.21
2018-07-22T09:29:01.131Z,72.98
2018-07-22T09:30:10.280Z,72.6
2018-07-22T09:31:19.144Z,72.98
2018-07-22T09:32:28.009Z,73.75
2018-07-22T09:33:37.226Z,73.18
2018-07-22T09:34:46.089Z,71.44
2018-07-22T09:35:55.255Z,71.24
2018-07-22T09:37:04.929Z,72.15
2018-07-22T09:38:13.796Z,69.11
2018-07-22T09:39:22.664Z,69.15
2018-07-22T09:40:31.807Z,68.37
2018-07-22T09:41:40.673Z,67.02
2018-07-22T09:42:49.538Z,66.53
2018-07-22T09:43:58.679Z,66.43
2018-07-22T09:45:07.922Z,66.05
2018-07-22T09:46:16.785Z,68.18
2018-07-22T09:47:25.940Z,68.85
2018-07-22T09:48:34.814Z,67.21
2018-07-22T09:49:43.948Z,68.6
2018-07-22T09:50:52.818Z,67.82
2018-07-22T09:52:01.975Z,68.4
2018-07-22T09:53:11.124Z,68.4
2018-07-22T09:54:19.991Z,68.02
2018-07-22T09:55:28.861Z,69.18
2018-07-22T09:56:37.730Z,68.79
2018-07-22T09:57:46.597Z,69.27
2018-07-22T09:58:55.741Z,69.18
2018-07-22T10:00:04.881Z,68.79
2018-07-22T10:01:13.746Z,68.89
2018-07-22T10:02:23.063Z,69.47
2018-07-22T10:03:32.209Z,68.4
2018-07-22T10:04:41.500Z,69.85
2018-07-22T10:05:50.942Z,68.02
2018-07-22T10:06:59.804Z,68.99
2018-07-22T10:08:09.022Z,67.05
2018-07-22T10:09:18.163Z,66.75
2018-07-22T10:10:27.080Z,66.08
2018-07-22T10:11:35.946Z,66.75
2018-07-22T10:12:44.811Z,67.05
2018-07-22T10:13:53.958Z,66.75
2018-07-22T10:15:02.873Z,66.08
2018-07-22T10:16:11.965Z,66.27
2018-07-22T10:17:20.832Z,67.05
2018-07-22T10:18:30.260Z,68.21
2018-07-22T10:19:39.130Z,66.56
2018-07-22T10:20:47.995Z,68.12
2018-07-22T10:21:56.862Z,66.27
2018-07-22T10:23:05.727Z,66.37
2018-07-22T10:24:14.594Z,67.18
2018-07-22T10:25:23.460Z,67.37
2018-07-22T10:26:32.329Z,66.4
2018-07-22T10:27:41.190Z,66.5
2018-07-22T10:28:50.058Z,65.92
2018-07-22T10:29:58.920Z,65.63
2018-07-22T10:31:07.935Z,64.95
2018-07-22T10:32:16.801Z,66.11
2018-07-22T10:33:25.667Z,66.5
2018-07-22T10:34:34.533Z,63.88
2018-07-22T10:35:43.422Z,63.59
2018-07-22T10:36:52.913Z,65.43
2018-07-22T10:38:02.057Z,65.24
2018-07-22T10:39:10.924Z,65.24
2018-07-22T10:40:20.068Z,65.82
2018-07-22T10:41:28.933Z,65.72
2018-07-22T10:42:37.950Z,66.02
2018-07-22T10:43:46.816Z,66.02
2018-07-22T10:44:56.243Z,66.02
2018-07-22T10:46:05.109Z,66.5
2018-07-22T10:47:13.974Z,66.02
2018-07-22T10:48:22.990Z,65.53
2018-07-22T10:49:31.855Z,66.4
2018-07-22T10:50:40.725Z,66.3
2018-07-22T10:51:49.588Z,66.89
2018-07-22T10:52:58.459Z,66.89
2018-07-22T10:54:07.602Z,67.18
2018-07-22T10:55:16.469Z,66.11
2018-07-22T10:56:25.617Z,66.63
2018-07-22T10:57:34.477Z,66.79
2018-07-22T10:58:43.346Z,66.6
2018-07-22T10:59:52.592Z,66.24
2018-07-22T11:01:01.459Z,65.75
2018-07-22T11:02:10.653Z,66.34
2018-07-22T11:03:19.853Z,66.05
2018-07-22T11:04:28.662Z,65.69
2018-07-22T11:05:37.680Z,64.92
2018-07-22T11:06:46.549Z,64.46
2018-07-22T11:07:55.600Z,65.11
2018-07-22T11:09:12.270Z,64.23
2018-07-22T11:10:27.772Z,65.47
2018-07-22T11:11:41.363Z,66.14
2018-07-22T11:12:50.898Z,66.05
2018-07-22T11:14:00.015Z,65.69
2018-07-22T11:15:12.939Z,66.27
2018-07-22T11:16:27.701Z,65.69
2018-07-22T11:17:42.942Z,64.92
2018-07-22T11:18:58.536Z,65.01
2018-07-22T11:20:13.972Z,65.05
2018-07-22T11:21:29.346Z,65.24
2018-07-22T11:22:45.731Z,64.36
2018-07-22T11:24:01.157Z,64.36
2018-07-22T11:25:17.032Z,64.46
2018-07-22T11:26:36.512Z,63.68
2018-07-22T11:27:51.955Z,65.05
2018-07-22T11:29:09.742Z,65.59
2018-07-22T11:30:26.993Z,65.05
2018-07-22T11:31:42.471Z,64.36
2018-07-22T11:33:00.405Z,64.36
2018-07-22T11:34:19.722Z,63.23
2018-07-22T11:35:51.693Z,63.23
2018-07-22T11:37:10.198Z,62.74
2018-07-22T11:38:31.428Z,63.59
2018-07-22T11:39:46.323Z,63.39
2018-07-22T11:41:03.970Z,63.81
2018-07-22T11:42:26.508Z,63.52
2018-07-22T11:43:42.971Z,63.84
2018-07-22T11:44:53.881Z,63.81
2018-07-22T11:46:11.886Z,63.17
2018-07-22T11:47:29.630Z,62.97
2018-07-22T11:49:00.410Z,62.13
2018-07-22T11:50:18.739Z,62.06
2018-07-22T11:51:37.299Z,61.96
2018-07-22T11:52:53.149Z,61.47
2018-07-22T11:54:07.247Z,61.77
2018-07-22T11:55:21.096Z,61.96
2018-07-22T11:56:34.526Z,62.74
2018-07-22T11:57:49.450Z,62.26
2018-07-22T11:59:03.484Z,63.26
2018-07-22T12:00:20.185Z,63.03
2018-07-22T12:01:41.509Z,63.81
2018-07-22T12:03:00.574Z,63.35
2018-07-22T12:04:11.851Z,63.84
2018-07-22T12:05:24.400Z,63.35
2018-07-22T12:06:37.772Z,62.77
2018-07-22T12:08:19.220Z,62.9
2018-07-22T12:09:34.577Z,63.09
2018-07-22T12:10:49.801Z,62.7
2018-07-22T12:12:05.946Z,62.05
2018-07-22T12:13:20.049Z,61.83
2018-07-22T12:14:37.630Z,61.18
2018-07-22T12:15:56.211Z,61.54
2018-07-22T12:17:22.701Z,62.05
2018-07-22T12:18:34.050Z,62.6
2018-07-22T12:19:45.756Z,62.96
2018-07-22T12:20:57.515Z,64.42
2018-07-22T12:22:11.065Z,64.42
2018-07-22T12:23:24.689Z,65.08
2018-07-22T12:24:38.610Z,66.24
2018-07-22T12:25:55.721Z,66.05
2018-07-22T12:27:15.180Z,65.69
2018-07-22T12:28:30.029Z,65.5
2018-07-22T12:29:41.316Z,65.37
2018-07-22T12:30:52.132Z,65.3
2018-07-22T12:32:02.755Z,65.75
2018-07-22T12:33:12.968Z,66.6
2018-07-22T12:34:22.974Z,66.21
2018-07-22T12:35:32.349Z,65.33
2018-07-22T12:36:41.812Z,65.66
2018-07-22T12:37:51.508Z,66.14
2018-07-22T12:40:40.654Z,65.37
2018-07-22T12:41:52.771Z,64.62
2018-07-22T12:43:01.645Z,64.55
2018-07-22T12:44:10.617Z,63.78
2018-07-22T12:45:19.493Z,63.12
2018-07-22T12:46:28.395Z,62.73
2018-07-22T12:47:37.942Z,61.96
2018-07-22T12:48:46.816Z,62.51
2018-07-22T12:49:55.690Z,61.76
2018-07-22T12:51:04.564Z,60.91
2018-07-22T12:52:13.998Z,60.33
2018-07-22T12:53:22.879Z,59.52
2018-07-22T12:54:31.756Z,59.62
2018-07-22T12:55:40.627Z,59.16
2018-07-22T12:56:49.502Z,58.77
2018-07-22T12:57:58.377Z,59.35
2018-07-22T12:59:08.188Z,59.94
2018-07-22T13:00:18.098Z,58.48
2018-07-22T13:01:26.977Z,58.38
2018-07-22T13:02:35.857Z,58.67
2018-07-22T13:03:45.286Z,59.06
2018-07-22T13:04:54.163Z,58.58
2018-07-22T13:06:03.040Z,58.74
2018-07-22T13:07:11.922Z,58.31
2018-07-22T13:08:20.801Z,58.02
2018-07-22T13:09:29.678Z,58.63
2018-07-22T13:10:38.557Z,59.45
2018-07-22T13:11:47.431Z,59.06
2018-07-22T13:12:56.308Z,58.09
2018-07-22T13:14:05.190Z,57.73
2018-07-22T13:15:14.067Z,57.17
2018-07-22T13:16:23.373Z,56.81
2018-07-22T13:17:32.697Z,56.74
2018-07-22T13:18:41.842Z,57.17
2018-07-22T13:19:50.717Z,56.61
2018-07-22T13:20:59.745Z,56.48
2018-07-22T13:22:08.629Z,56.81
2018-07-22T13:23:17.505Z,58.02
2018-07-22T13:24:26.443Z,57.79
2018-07-22T13:25:35.630Z,58.63
2018-07-22T13:26:45.377Z,58.04
2018-07-22T13:27:54.268Z,57.75
2018-07-22T13:29:03.147Z,57.04
2018-07-22T13:30:12.068Z,56.95
2018-07-22T13:31:20.943Z,57.43
2018-07-22T13:32:30.253Z,57.43
2018-07-22T13:33:39.143Z,56.97
2018-07-22T13:34:48.018Z,57.85
2018-07-22T13:35:56.897Z,56.22
2018-07-22T13:37:06.049Z,56.29
2018-07-22T13:38:15.004Z,55.71
2018-07-22T13:39:24.611Z,55.54
2018-07-22T13:40:33.499Z,56.65
2018-07-22T13:41:42.372Z,56.38
2018-07-22T13:42:51.250Z,55.58
2018-07-22T13:44:00.142Z,56.1
2018-07-22T13:45:09.399Z,55.51
2018-07-22T13:46:18.456Z,55.54
2018-07-22T13:47:27.336Z,55.41
2018-07-22T13:48:36.216Z,55.51
2018-07-22T13:49:45.246Z,55.15
2018-07-22T13:50:54.123Z,55.86
2018-07-22T13:52:03.003Z,56.2
2018-07-22T13:53:11.918Z,55.8
2018-07-22T13:54:20.799Z,54.85
2018-07-22T13:55:29.722Z,54.13
2018-07-22T13:56:38.876Z,54.59
2018-07-22T13:57:47.818Z,54.61
2018-07-22T13:58:56.696Z,54.69
2018-07-22T14:00:05.577Z,54.69
2018-07-22T14:01:14.604Z,54.98
2018-07-22T14:02:23.769Z,54.56
2018-07-22T14:03:32.653Z,54.39
2018-07-22T14:04:41.809Z,54.59
2018-07-22T14:05:50.973Z,53.42
2018-07-22T14:06:59.859Z,53.44
2018-07-22T14:08:08.744Z,53.15
2018-07-22T14:09:17.630Z,53.91
2018-07-22T14:10:26.514Z,54.34
2018-07-22T14:11:35.395Z,55.41
2018-07-22T14:12:44.550Z,54.93
2018-07-22T14:13:53.429Z,53.97
2018-07-22T14:15:02.313Z,53.88
2018-07-22T14:16:11.191Z,54.85
2018-07-22T14:17:20.071Z,54.44
2018-07-22T14:18:28.950Z,53.78
2018-07-22T14:19:37.834Z,53.29
2018-07-22T14:20:46.990Z,53.88
2018-07-22T14:21:55.868Z,53.58
2018-07-22T14:23:04.750Z,54
2018-07-22T14:24:13.780Z,54.17
2018-07-22T14:25:22.660Z,53.95
2018-07-22T14:26:31.821Z,54.95
2018-07-22T14:27:41.046Z,55.22
2018-07-22T14:28:50.596Z,54.63
2018-07-22T14:29:59.859Z,54.24
2018-07-22T14:31:09.018Z,53.58
2018-07-22T14:32:17.897Z,53.81
2018-07-22T14:33:26.791Z,53.71
2018-07-22T14:34:35.946Z,54.39
2018-07-22T14:35:45.110Z,54.73
2018-07-22T14:36:53.989Z,53.78
2018-07-22T14:38:02.873Z,53.81
2018-07-22T14:39:14.378Z,53.71
2018-07-22T14:40:25.394Z,53.97
2018-07-22T14:41:34.402Z,53.88
2018-07-22T14:42:43.528Z,52.73
2018-07-22T14:43:53.297Z,53.34
2018-07-22T14:45:02.890Z,53.83
2018-07-22T14:46:12.717Z,52.76
2018-07-22T14:47:23.331Z,53.44
2018-07-22T14:48:33.190Z,52.47
2018-07-22T14:49:43.390Z,51.22
2018-07-22T14:50:52.352Z,51.51
2018-07-22T14:52:01.896Z,50.54
2018-07-22T14:53:12.075Z,50.93
2018-07-22T14:54:22.118Z,51.32
2018-07-22T14:55:32.614Z,51.03
2018-07-22T14:56:44.718Z,50.66
2018-07-22T14:57:59.426Z,50.27
2018-07-22T14:59:18.446Z,50.95
2018-07-22T15:00:30.480Z,51.71
2018-07-22T15:01:44.657Z,51.22
2018-07-22T15:02:57.091Z,51.22